Página principal
METAR-TAF:

METAR-TAF

Aeroportos :

San Juan, Porto Rico, Estados Unidos

latitude: 18-27-24N, longitude: 066-05-54W, altura: 3 m

Observação actual do tempo

O boletim foi feito há 41 minutos, às 17:48 UTC
Vento 16 kt de este
Temperatura 28°C
Humidade 79%
Pressão 1015 hPa
Visibilidade: 12.9 km
Nuvens dispersasa uma altura de 2000 ft
Nuvens fragmentadasa uma altura de 6000 ft
Nuvens fragmentadasa uma altura de 10000 ft
chuva fraca

METAR: TJIG 131748Z 08016KT 8SM -RA SCT020 BKN060 BKN100 28/24 A2996

Hora: 14:29 (18:29 UTC)


TAF: em falta

Observações e previsões do tempo de mais de 4000 aeroportos (mensagens METAR e TAF).

As estações disponíveis são os pontos amarelos e vermelhos sobre o mapa.

Mova o rato sobre o mapa para ver o nome da estação.

Depois clique no ponto para visualizar as observações e previsões meteorológicas.

Para alterar o mapa : clique nos botões verdes com uma cruz preta para aumentar o zoom; no botão verde com uma pitada de zoom; ou nas setas verdes para mapas adjacentes.


METAR-TAF: